Grand Chenier, Louisiana
Current Conditions -  °F | °C
As of 6:35 AM on Thursday 23 Oct 2014 (Local Time) from KCVW Reporting Station
NA  
Wind Chill: 57°   Ceiling: NA
Heat Index: 57°   Visibility: 10mi
Dew Point: 54°   Wind: 8mph
Humidity: 88%   Direction: 40°NE
Pressure: 30.1"   Gusts: NA
Location:  29.77°N, 92.98°W
Report Text: KCVW 231135Z AUTO 04007KT 10SM 14/12 A3010 RMK A01
Loading
Personal Weather Stations






























Interactive Weather Map
Tropical Storm Tracking
New forecast layout! Learn more

10-Day Weather Forecast

Advertisements
Track Severe Weather on mobile